Time;durP1;ratioP1;P1;durP2;ratioP2;P2;SDS_P1;SDS_P2;PMS_P1;PMS_P2;Temp;Humidity;BMP_temperature;BMP_pressure;BME280_temperature;BME280_humidity;BME280_pressure;Samples;Min_cycle;Max_cycle;Signal;HPM_P1;HPM_P2
2024/04/09 00:00:34;;;;;;;26.10;5.30;;;;;;;;;;5502265;26;20360;-68
2024/04/09 00:03:00;;;;;;;22.00;5.05;;;;;;;;;;5470332;26;19998;-68
2024/04/09 00:05:27;;;;;;;17.27;4.45;;;;;;;;;;5503520;26;20018;-68
2024/04/09 00:07:54;;;;;;;21.67;4.55;;;;;;;;;;5502023;26;20009;-68
2024/04/09 00:10:20;;;;;;;16.83;4.63;;;;;;;;;;5483876;26;20099;-68
2024/04/09 00:12:46;;;;;;;14.52;4.72;;;;;;;;;;5486669;26;20007;-67
2024/04/09 00:15:13;;;;;;;20.17;4.43;;;;;;;;;;5495865;26;20001;-68
2024/04/09 00:17:44;;;;;;;22.15;4.45;;;18.90;74.30;;;;;;5471946;26;19998;-67
2024/04/09 00:20:17;;;;;;;21.10;4.60;;;18.80;74.70;;;;;;5501848;26;20001;-68
2024/04/09 00:22:45;;;;;;;14.80;3.75;;;18.80;73.90;;;;;;5499881;26;19994;-68
2024/04/09 00:25:12;;;;;;;20.63;4.45;;;18.60;73.80;;;;;;5499183;26;20334;-68
2024/04/09 00:27:39;;;;;;;22.50;4.20;;;18.60;69.90;;;;;;5502738;26;20002;-68
2024/04/09 00:30:06;;;;;;;12.65;4.43;;;18.70;68.80;;;;;;5508064;26;20002;-68
2024/04/09 00:32:32;;;;;;;18.17;3.80;;;18.80;69.30;;;;;;5465321;26;20475;-68
2024/04/09 00:34:58;;;;;;;10.05;3.33;;;18.80;70.60;;;;;;5502950;26;20009;-68
2024/04/09 00:37:24;;;;;;;15.05;3.17;;;18.70;71.50;;;;;;5511205;26;20375;-67
2024/04/09 00:39:50;;;;;;;14.80;2.92;;;18.60;71.30;;;;;;5504752;26;20011;-68
2024/04/09 00:42:15;;;;;;;9.55;3.03;;;18.60;71.40;;;;;;5485175;26;19998;-68
2024/04/09 00:44:41;;;;;;;11.70;2.67;;;18.50;72.30;;;;;;5510018;26;20001;-67
2024/04/09 00:47:08;;;;;;;17.15;4.07;;;18.40;73.20;;;;;;5498267;26;20017;-67
2024/04/09 00:49:34;;;;;;;14.60;4.25;;;18.30;73.30;;;;;;5501071;26;20069;-67
2024/04/09 00:52:00;;;;;;;17.75;4.32;;;18.30;73.80;;;;;;5505484;26;20073;-67
2024/04/09 00:54:27;;;;;;;17.60;4.22;;;18.20;74.40;;;;;;5510795;26;20003;-67
2024/04/09 00:56:56;;;;;;;16.25;3.25;;;18.20;74.00;;;;;;5501336;26;20008;-67
2024/04/09 00:59:22;;;;;;;16.00;4.10;;;18.10;73.20;;;;;;5504535;26;20003;-67
2024/04/09 01:01:48;;;;;;;17.80;3.85;;;18.10;73.10;;;;;;5506792;26;20106;-67
2024/04/09 01:04:14;;;;;;;13.05;3.58;;;18.10;72.90;;;;;;5507171;26;19997;-67
2024/04/09 01:06:41;;;;;;;11.00;2.80;;;18.00;72.70;;;;;;5499329;26;20002;-67
2024/04/09 01:09:08;;;;;;;12.50;3.35;;;18.00;72.30;;;;;;5505894;26;20073;-67
2024/04/09 01:11:34;;;;;;;15.05;3.33;;;18.00;72.60;;;;;;5480711;26;20037;-67
2024/04/09 01:14:00;;;;;;;17.23;3.95;;;18.10;72.90;;;;;;5502258;26;20442;-68
2024/04/09 01:16:25;;;;;;;17.70;3.20;;;18.00;73.40;;;;;;5505193;26;20008;-67
2024/04/09 01:18:51;;;;;;;21.42;4.20;;;18.00;73.30;;;;;;5509955;26;19993;-67
2024/04/09 01:21:16;;;;;;;17.25;3.63;;;18.00;73.20;;;;;;5506777;26;20002;-67
2024/04/09 01:23:42;;;;;;;14.70;4.07;;;18.00;72.10;;;;;;5500747;26;20359;-67
2024/04/09 01:26:09;;;;;;;10.38;3.40;;;18.00;72.10;;;;;;5505179;26;20446;-68
2024/04/09 01:28:36;;;;;;;14.98;4.45;;;18.00;72.00;;;;;;5500696;26;20030;-68
2024/04/09 01:31:02;;;;;;;10.70;3.65;;;18.00;71.00;;;;;;5500623;26;20011;-67
2024/04/09 01:33:28;;;;;;;12.88;3.55;;;18.10;71.20;;;;;;5504941;26;19997;-68
2024/04/09 01:35:53;;;;;;;22.38;3.47;;;18.10;71.50;;;;;;5507914;26;20004;-68
2024/04/09 01:38:19;;;;;;;19.45;4.03;;;18.10;71.70;;;;;;5507264;26;20464;-67
2024/04/09 01:40:46;;;;;;;25.55;4.22;;;18.10;70.90;;;;;;5467084;26;20414;-67
2024/04/09 01:43:12;;;;;;;12.43;3.08;;;18.20;70.40;;;;;;5490975;26;20772;-67
2024/04/09 01:45:38;;;;;;;14.40;3.70;;;18.20;68.60;;;;;;5505207;26;20047;-66
2024/04/09 01:48:04;;;;;;;15.43;3.53;;;18.40;68.50;;;;;;5505675;26;20342;-66
2024/04/09 01:50:31;;;;;;;12.18;3.40;;;18.40;69.20;;;;;;5503530;26;20008;-67
2024/04/09 01:52:57;;;;;;;18.85;3.67;;;18.40;70.70;;;;;;5510956;26;19994;-67
2024/04/09 01:55:22;;;;;;;14.43;3.63;;;18.40;70.40;;;;;;5513985;26;20461;-67
2024/04/09 01:57:48;;;;;;;22.02;3.85;;;18.40;70.10;;;;;;5499186;26;20017;-66
2024/04/09 02:00:20;;;;;;;14.20;3.47;;;18.40;70.00;;;;;;5505361;26;20071;-67
2024/04/09 02:02:52;;;;;;;9.20;3.00;;;18.30;70.30;;;;;;5496906;26;19994;-66
2024/04/09 02:05:20;;;;;;;17.33;2.55;;;18.30;70.60;;;;;;5497027;26;20013;-66
2024/04/09 02:07:46;;;;;;;8.02;2.95;;;18.20;70.60;;;;;;5491139;26;20459;-67
2024/04/09 02:10:11;;;;;;;9.48;3.50;;;18.20;71.10;;;;;;5488357;26;20482;-66
2024/04/09 02:12:40;;;;;;;6.90;2.60;;;18.10;71.20;;;;;;5486680;26;19994;-66
2024/04/09 02:15:06;;;;;;;11.32;2.45;;;18.10;71.30;;;;;;5470710;26;20024;-67
2024/04/09 02:17:32;;;;;;;8.73;2.70;;;18.00;71.20;;;;;;5479235;26;20439;-66
2024/04/09 02:19:58;;;;;;;16.27;3.30;;;18.00;71.80;;;;;;5486148;26;20067;-66
2024/04/09 02:22:24;;;;;;;11.90;3.67;;;17.90;71.90;;;;;;5510142;26;20068;-68
2024/04/09 02:24:51;;;;;;;23.77;3.60;;;17.90;71.80;;;;;;5514799;26;20065;-68
2024/04/09 02:27:17;;;;;;;14.18;2.95;;;17.90;71.70;;;;;;5512551;26;19994;-67
2024/04/09 02:29:43;;;;;;;19.02;3.60;;;17.90;71.10;;;;;;5486004;26;20440;-67
2024/04/09 02:32:10;;;;;;;9.05;2.83;;;17.90;70.70;;;;;;5508558;26;19998;-67
2024/04/09 02:34:36;;;;;;;11.45;3.05;;;18.00;70.80;;;;;;5521075;26;20014;-67
2024/04/09 02:37:05;;;;;;;11.45;2.67;;;18.00;71.20;;;;;;5473828;26;20447;-67
2024/04/09 02:39:31;;;;;;;12.23;2.53;;;17.90;71.70;;;;;;5496474;26;20443;-67
2024/04/09 02:41:57;;;;;;;15.10;4.50;;;17.90;72.00;;;;;;5466063;26;20066;-67
2024/04/09 02:44:23;;;;;;;13.60;3.05;;;17.90;72.70;;;;;;5467690;26;20007;-67
2024/04/09 02:46:49;;;;;;;16.42;3.65;;;17.90;73.10;;;;;;5497242;26;20005;-67
2024/04/09 02:49:15;;;;;;;11.88;3.22;;;17.80;72.60;;;;;;5473881;26;19998;-67
2024/04/09 02:51:41;;;;;;;10.88;3.45;;;17.80;72.80;;;;;;5504108;26;20006;-67
2024/04/09 02:54:08;;;;;;;12.23;3.17;;;17.80;72.50;;;;;;5495805;26;20075;-67
2024/04/09 02:56:34;;;;;;;16.45;4.20;;;17.80;72.60;;;;;;5509774;26;20466;-67
2024/04/09 02:59:00;;;;;;;17.60;4.25;;;17.80;72.50;;;;;;5499458;26;20090;-67
2024/04/09 03:01:26;;;;;;;13.52;3.97;;;17.80;71.80;;;;;;5509287;26;20702;-67
2024/04/09 03:03:52;;;;;;;13.75;3.45;;;17.80;71.90;;;;;;5501916;26;20005;-67
2024/04/09 03:06:17;;;;;;;14.85;3.00;;;17.80;72.10;;;;;;5508610;26;20016;-67
2024/04/09 03:08:43;;;;;;;13.70;3.63;;;17.80;72.50;;;;;;5495417;26;20005;-67
2024/04/09 03:11:17;;;;;;;17.15;3.83;;;17.70;73.10;;;;;;5463867;26;20048;-66
2024/04/09 03:13:49;;;;;;;23.52;4.13;;;17.70;73.20;;;;;;5491970;26;20040;-66
2024/04/09 03:16:19;;;;;;;25.77;4.22;;;17.60;73.00;;;;;;5509560;26;20005;-66
2024/04/09 03:18:46;;;;;;;23.60;4.97;;;17.50;73.00;;;;;;5483609;26;20029;-68
2024/04/09 03:21:12;;;;;;;17.10;4.10;;;17.60;73.20;;;;;;5501585;26;20002;-67
2024/04/09 03:23:39;;;;;;;21.08;4.68;;;17.80;72.50;;;;;;5483609;26;20008;-68
2024/04/09 03:26:06;;;;;;;21.63;4.72;;;17.90;72.60;;;;;;5501272;26;20009;-68
2024/04/09 03:28:35;;;;;;;23.48;4.88;;;18.00;72.60;;;;;;5506436;26;20012;-68
2024/04/09 03:31:02;;;;;;;18.58;4.72;;;18.00;72.80;;;;;;5507595;26;20069;-68
2024/04/09 03:33:27;;;;;;;21.63;4.57;;;18.00;73.00;;;;;;5508409;26;20034;-68
2024/04/09 03:35:57;;;;;;;18.73;4.05;;;18.00;73.10;;;;;;5497078;26;20009;-68
2024/04/09 03:38:23;;;;;;;27.38;5.85;;;18.00;73.10;;;;;;5503599;26;20092;-66
2024/04/09 03:40:53;;;;;;;16.95;4.03;;;18.00;73.80;;;;;;5465370;26;27195;-66
2024/04/09 03:43:19;;;;;;;19.03;4.43;;;18.00;74.00;;;;;;5470179;26;20007;-68
2024/04/09 03:46:00;;;;;;;16.02;4.18;;;17.90;73.40;;;;;;5485285;26;20274;-68
2024/04/09 03:48:26;;;;;;;20.70;4.05;;;17.90;74.10;;;;;;5495588;26;20430;-68
2024/04/09 03:50:51;;;;;;;22.85;4.63;;;17.80;75.00;;;;;;5493696;26;20009;-68
2024/04/09 03:53:17;;;;;;;25.80;4.30;;;17.70;75.50;;;;;;5493148;26;19998;-66
2024/04/09 03:55:55;;;;;;;17.20;4.00;;;17.60;75.70;;;;;;5501066;26;19997;-67
2024/04/09 03:58:21;;;;;;;22.67;4.63;;;17.60;75.40;;;;;;5468235;26;20027;-67
2024/04/09 04:00:58;;;;;;;22.23;4.07;;;17.50;75.70;;;;;;5497711;26;20474;-68
2024/04/09 04:03:25;;;;;;;18.40;4.05;;;17.50;76.70;;;;;;5510604;26;20395;-68
2024/04/09 04:05:59;;;;;;;20.15;4.18;;;17.40;77.30;;;;;;5524751;26;20008;-68
2024/04/09 04:08:29;;;;;;;16.42;4.50;;;17.30;77.40;;;;;;5504043;26;20500;-68
2024/04/09 04:10:55;;;;;;;12.05;3.67;;;17.20;78.70;;;;;;5468158;26;24334;-68
2024/04/09 04:13:24;;;;;;;19.13;4.03;;;17.20;79.00;;;;;;5478253;26;20008;-69
2024/04/09 04:16:06;;;;;;;12.80;3.97;;;17.10;78.50;;;;;;5489199;26;20020;-68
2024/04/09 04:18:36;;;;;;;14.80;4.00;;;17.00;78.00;;;;;;5501437;26;20001;-68
2024/04/09 04:21:03;;;;;;;14.02;3.97;;;16.90;78.70;;;;;;5501057;26;20034;-68
2024/04/09 04:23:29;;;;;;;15.60;4.03;;;16.80;79.40;;;;;;5509395;26;20002;-68
2024/04/09 04:26:08;;;;;;;24.17;5.90;;;16.70;79.90;;;;;;5497794;26;19990;-68
2024/04/09 04:28:42;;;;;;;22.57;5.87;;;16.70;80.90;;;;;;5465065;26;20334;-67
2024/04/09 04:31:10;;;;;;;19.77;4.45;;;16.60;80.60;;;;;;5482444;26;20005;-68
2024/04/09 04:33:39;;;;;;;19.35;4.45;;;16.50;81.00;;;;;;5510139;26;20005;-67
2024/04/09 04:36:06;;;;;;;19.02;5.03;;;16.40;81.20;;;;;;5507823;26;20399;-67
2024/04/09 04:38:32;;;;;;;28.83;4.85;;;16.40;81.40;;;;;;5517656;26;20016;-67
2024/04/09 04:40:59;;;;;;;15.93;4.00;;;16.30;82.90;;;;;;5469764;26;19998;-67
2024/04/09 04:43:24;;;;;;;20.50;4.97;;;16.30;83.00;;;;;;5470330;26;19999;-69
2024/04/09 04:45:56;;;;;;;16.52;4.63;;;16.20;82.90;;;;;;5502772;26;20002;-68
2024/04/09 04:48:22;;;;;;;30.98;5.15;;;16.20;83.10;;;;;;5486515;26;20005;-69
2024/04/09 04:50:49;;;;;;;20.85;5.25;;;16.20;83.20;;;;;;5500957;26;20026;-69
2024/04/09 04:53:15;;;;;;;21.77;5.38;;;16.20;83.00;;;;;;5499781;26;20091;-73
2024/04/09 04:55:41;;;;;;;34.92;5.93;;;16.20;83.20;;;;;;5518558;26;20001;-70
2024/04/09 04:58:07;;;;;;;24.33;5.93;;;16.30;84.80;;;;;;5497393;26;20090;-70
2024/04/09 05:00:35;;;;;;;25.80;5.25;;;16.20;83.90;;;;;;5490283;26;20002;-71
2024/04/09 05:03:01;;;;;;;25.60;5.20;;;16.30;83.10;;;;;;5491408;26;20038;-70
2024/04/09 05:05:28;;;;;;;34.08;5.40;;;16.50;83.30;;;;;;5492881;26;20009;-70
2024/04/09 05:07:54;;;;;;;31.88;4.93;;;16.50;82.90;;;;;;5505293;26;20034;-71
2024/04/09 05:10:20;;;;;;;23.52;4.72;;;16.60;83.00;;;;;;5491380;26;19995;-71
2024/04/09 05:12:48;;;;;;;25.30;4.85;;;16.60;83.30;;;;;;5463079;26;20010;-71
2024/04/09 05:15:13;;;;;;;24.13;4.30;;;16.80;83.20;;;;;;5477776;26;20001;-71
2024/04/09 05:17:40;;;;;;;19.02;3.83;;;16.90;83.40;;;;;;5495562;26;20070;-70
2024/04/09 05:20:09;;;;;;;20.10;4.05;;;17.20;83.10;;;;;;5515122;26;20012;-70
2024/04/09 05:22:39;;;;;;;15.85;3.83;;;17.30;83.20;;;;;;5507752;26;20039;-70
2024/04/09 05:25:05;;;;;;;14.07;2.67;;;17.40;83.00;;;;;;5463153;26;20056;-70
2024/04/09 05:27:32;;;;;;;13.88;3.30;;;17.40;83.40;;;;;;5465480;26;20016;-67
2024/04/09 05:29:58;;;;;;;7.18;2.15;;;17.40;83.70;;;;;;5442274;26;20007;-67
2024/04/09 05:32:25;;;;;;;10.25;2.15;;;17.60;83.80;;;;;;5505907;26;20183;-67
2024/04/09 05:34:50;;;;;;;19.63;2.75;;;17.60;84.40;;;;;;5492883;26;19993;-68
2024/04/09 05:37:16;;;;;;;13.68;2.83;;;17.70;83.80;;;;;;5500820;26;20038;-69
2024/04/09 05:39:42;;;;;;;13.00;2.53;;;17.80;83.90;;;;;;5469160;26;20006;-69
2024/04/09 05:42:09;;;;;;;15.93;2.92;;;17.80;84.00;;;;;;5471020;26;20454;-69
2024/04/09 05:44:35;;;;;;;8.27;2.00;;;17.80;84.70;;;;;;5476394;26;20020;-69
2024/04/09 05:47:00;;;;;;;11.95;2.65;;;17.80;84.20;;;;;;5486759;26;20006;-68
2024/04/09 05:49:26;;;;;;;12.90;2.00;;;17.80;84.60;;;;;;5494755;26;20002;-69
2024/04/09 05:51:52;;;;;;;17.23;3.30;;;17.90;84.40;;;;;;5487845;26;20003;-69
2024/04/09 05:54:18;;;;;;;11.55;2.55;;;17.90;84.50;;;;;;5510233;26;20069;-69
2024/04/09 05:56:47;;;;;;;7.90;2.20;;;18.00;84.40;;;;;;5508164;26;20001;-69
2024/04/09 05:59:13;;;;;;;8.70;2.15;;;18.10;84.40;;;;;;5499306;26;20022;-69
2024/04/09 06:01:39;;;;;;;15.85;2.40;;;18.10;84.80;;;;;;5497757;26;20005;-68
2024/04/09 06:04:05;;;;;;;11.02;2.22;;;18.10;85.30;;;;;;5514591;26;20009;-69
2024/04/09 06:06:31;;;;;;;9.02;2.28;;;18.10;85.30;;;;;;5519691;26;19997;-69
2024/04/09 06:08:57;;;;;;;9.82;2.15;;;18.00;85.70;;;;;;5495743;26;20450;-69
2024/04/09 06:11:22;;;;;;;10.13;2.10;;;18.00;85.80;;;;;;5464506;26;20003;-70
2024/04/09 06:13:52;;;;;;;11.30;2.40;;;18.00;86.10;;;;;;5483852;26;20002;-69
2024/04/09 06:16:18;;;;;;;10.43;1.88;;;18.00;86.30;;;;;;5486900;26;20066;-69
2024/04/09 06:18:44;;;;;;;9.13;2.00;;;17.90;86.70;;;;;;5487569;26;20455;-69
2024/04/09 06:21:09;;;;;;;13.20;2.20;;;17.90;86.80;;;;;;5513924;26;20002;-69
2024/04/09 06:23:35;;;;;;;11.77;2.05;;;17.90;87.30;;;;;;5473377;26;20075;-69
2024/04/09 06:26:02;;;;;;;9.07;1.73;;;17.90;87.60;;;;;;5513778;26;20012;-69
2024/04/09 06:28:28;;;;;;;10.13;1.90;;;17.80;87.90;;;;;;5504204;26;20412;-69
2024/04/09 06:30:53;;;;;;;11.23;2.00;;;17.70;88.40;;;;;;5471916;26;19997;-69
2024/04/09 06:33:19;;;;;;;9.15;1.80;;;17.70;88.60;;;;;;5500244;26;20005;-69
2024/04/09 06:35:45;;;;;;;6.93;2.13;;;17.70;88.90;;;;;;5478931;26;20017;-68
2024/04/09 06:38:11;;;;;;;4.80;1.10;;;17.70;89.10;;;;;;5485326;26;19994;-69
2024/04/09 06:40:36;;;;;;;12.98;2.30;;;17.70;89.40;;;;;;5479837;26;19998;-69
2024/04/09 06:43:03;;;;;;;7.25;1.92;;;17.70;89.70;;;;;;5482021;26;19998;-69
2024/04/09 06:45:29;;;;;;;12.63;2.30;;;17.70;90.00;;;;;;5485148;26;20352;-69
2024/04/09 06:47:55;;;;;;;5.88;1.73;;;17.80;90.00;;;;;;5488529;26;20013;-69
2024/04/09 06:50:20;;;;;;;8.85;1.52;;;17.90;90.20;;;;;;5488539;26;20006;-69
2024/04/09 06:52:46;;;;;;;6.57;1.98;;;17.90;90.30;;;;;;5492410;26;20493;-68
2024/04/09 06:55:11;;;;;;;6.65;1.73;;;17.90;90.30;;;;;;5485708;26;20052;-67
2024/04/09 06:57:37;;;;;;;7.90;1.75;;;17.90;90.50;;;;;;5494268;26;20023;-69
2024/04/09 07:00:04;;;;;;;13.00;2.08;;;17.90;90.60;;;;;;5488654;26;19994;-70
2024/04/09 07:02:30;;;;;;;9.15;1.60;;;18.10;90.70;;;;;;5489061;26;20074;-69
2024/04/09 07:04:56;;;;;;;7.05;1.92;;;18.10;90.90;;;;;;5492518;26;20009;-69
2024/04/09 07:07:23;;;;;;;8.13;1.83;;;18.10;90.90;;;;;;5494145;26;20014;-70
2024/04/09 07:09:50;;;;;;;10.73;2.03;;;18.20;90.80;;;;;;5499229;26;20044;-70
2024/04/09 07:12:15;;;;;;;14.68;1.83;;;18.10;90.80;;;;;;5481901;26;20467;-70
2024/04/09 07:14:41;;;;;;;7.65;1.98;;;18.20;91.30;;;;;;5486053;26;20051;-70
2024/04/09 07:17:07;;;;;;;12.93;2.13;;;18.20;91.30;;;;;;5446591;26;20346;-70
2024/04/09 07:19:33;;;;;;;6.07;1.40;;;18.30;91.40;;;;;;5498968;26;19998;-70
2024/04/09 07:21:58;;;;;;;9.63;1.65;;;18.50;91.30;;;;;;5482418;26;20330;-68
2024/04/09 07:24:24;;;;;;;9.65;1.80;;;18.60;91.20;;;;;;5496551;26;20031;-69
2024/04/09 07:26:49;;;;;;;10.60;1.67;;;18.70;91.30;;;;;;5495981;26;20001;-69
2024/04/09 07:29:18;;;;;;;5.60;1.77;;;18.80;91.40;;;;;;5479230;26;20005;-70
2024/04/09 07:31:44;;;;;;;6.22;1.60;;;18.90;91.30;;;;;;5460481;26;20305;-70
2024/04/09 07:34:09;;;;;;;11.38;2.30;;;19.00;91.20;;;;;;5474022;26;20035;-70
2024/04/09 07:36:35;;;;;;;7.47;2.20;;;19.00;90.90;;;;;;5502110;26;19998;-70
2024/04/09 07:39:01;;;;;;;7.80;2.40;;;19.00;90.90;;;;;;5507301;26;19997;-70
2024/04/09 07:41:26;;;;;;;8.85;2.10;;;18.90;91.10;;;;;;5509312;26;20005;-68
2024/04/09 07:43:52;;;;;;;7.47;1.80;;;18.80;91.60;;;;;;5478130;26;20094;-68
2024/04/09 07:46:19;;;;;;;8.98;1.73;;;18.50;92.00;;;;;;5472293;26;20013;-69
2024/04/09 07:48:45;;;;;;;8.65;1.83;;;18.20;92.80;;;;;;5503045;26;20063;-69
2024/04/09 07:51:11;;;;;;;15.93;2.38;;;18.00;93.40;;;;;;5475751;26;20005;-69
2024/04/09 07:53:38;;;;;;;10.98;1.80;;;17.40;94.40;;;;;;5501459;26;19998;-68
2024/04/09 07:56:12;;;;;;;12.63;1.80;;;17.00;95.40;;;;;;5492491;26;19994;-68
2024/04/09 07:58:38;;;;;;;7.25;1.88;;;16.70;96.60;;;;;;5481523;26;20030;-68
2024/04/09 08:01:04;;;;;;;8.25;1.15;;;16.50;97.30;;;;;;5485111;26;20002;-68
2024/04/09 08:03:30;;;;;;;3.55;0.88;;;16.30;98.10;;;;;;5471496;26;19993;-68
2024/04/09 08:05:55;;;;;;;9.23;0.88;;;16.10;97.50;;;;;;5515062;26;20006;-68
2024/04/09 08:08:21;;;;;;;12.27;0.68;;;15.90;97.60;;;;;;5516552;26;19997;-68
2024/04/09 08:10:48;;;;;;;7.32;0.50;;;15.60;98.00;;;;;;5495201;26;19994;-68
2024/04/09 08:13:14;;;;;;;2.30;0.30;;;15.40;98.60;;;;;;5488963;26;20012;-68
2024/04/09 08:15:40;;;;;;;1.80;0.40;;;15.30;99.90;;;;;;5505733;26;19993;-69
2024/04/09 08:18:05;;;;;;;2.80;0.40;;;15.00;99.40;;;;;;5498791;26;20327;-69
2024/04/09 08:20:31;;;;;;;4.90;0.20;;;14.80;99.60;;;;;;5500558;26;20009;-69
2024/04/09 08:23:00;;;;;;;3.10;0.57;;;14.60;99.70;;;;;;5506349;26;19998;-69
2024/04/09 08:25:25;;;;;;;2.20;0.30;;;14.50;99.40;;;;;;5495606;26;19995;-69
2024/04/09 08:27:51;;;;;;;4.00;0.30;;;14.10;99.50;;;;;;5479054;26;20001;-69
2024/04/09 08:30:23;;;;;;;0.73;0.20;;;13.90;99.20;;;;;;5495277;26;20448;-69
2024/04/09 08:32:52;;;;;;;0.70;0.20;;;13.80;99.50;;;;;;5483795;26;20001;-69
2024/04/09 08:35:18;;;;;;;1.02;0.30;;;13.70;99.90;;;;;;5470943;26;20013;-69
2024/04/09 08:37:44;;;;;;;4.03;0.32;;;13.70;99.50;;;;;;5500214;26;20001;-69
2024/04/09 08:40:11;;;;;;;1.42;0.20;;;13.60;98.60;;;;;;5509724;26;20001;-69
2024/04/09 08:42:40;;;;;;;3.20;0.38;;;13.60;98.40;;;;;;5478275;26;20454;-69
2024/04/09 08:45:14;;;;;;;3.75;0.52;;;13.50;98.00;;;;;;5490508;26;20001;-70
2024/04/09 08:47:41;;;;;;;5.05;0.35;;;13.50;97.70;;;;;;5502415;26;20030;-68
2024/04/09 08:50:07;;;;;;;3.78;0.25;;;13.40;97.40;;;;;;5512562;26;20438;-69
2024/04/09 08:52:33;;;;;;;1.75;0.20;;;13.20;97.90;;;;;;5507031;26;20121;-69
2024/04/09 08:55:00;;;;;;;4.45;0.20;;;13.10;98.20;;;;;;5504065;26;20002;-69
2024/04/09 08:57:30;;;;;;;2.05;0.30;;;13.10;98.60;;;;;;5486074;26;20068;-69
2024/04/09 08:59:57;;;;;;;5.38;0.43;;;13.10;98.50;;;;;;5497711;26;20002;-69
2024/04/09 09:02:22;;;;;;;2.22;0.32;;;13.10;98.50;;;;;;5472270;26;20010;-69
2024/04/09 09:04:48;;;;;;;2.13;0.20;;;13.00;98.70;;;;;;5518534;26;19997;-69
2024/04/09 09:07:15;;;;;;;1.45;0.20;;;13.00;98.30;;;;;;5505405;26;20035;-69
2024/04/09 09:09:41;;;;;;;2.88;0.20;;;12.90;98.50;;;;;;5512301;26;20094;-69
2024/04/09 09:12:08;;;;;;;2.08;0.63;;;13.00;98.40;;;;;;5495672;26;20581;-70
2024/04/09 09:14:33;;;;;;;3.85;0.28;;;12.90;98.60;;;;;;5483080;26;20002;-69
2024/04/09 09:17:06;;;;;;;0.90;0.20;;;12.90;98.10;;;;;;5506383;26;20330;-69
2024/04/09 09:19:34;;;;;;;3.58;0.30;;;12.90;97.60;;;;;;5499611;26;20443;-69
2024/04/09 09:22:10;;;;;;;6.13;0.40;;;12.90;97.40;;;;;;5500669;26;20523;-69
2024/04/09 09:24:36;;;;;;;0.17;0.15;;;12.80;97.20;;;;;;5479437;26;20055;-69
2024/04/09 09:27:04;;;;;;;2.53;0.55;;;12.70;96.90;;;;;;5464728;26;20007;-69
2024/04/09 09:29:31;;;;;;;2.05;0.20;;;12.70;97.00;;;;;;5478294;26;20014;-69
2024/04/09 09:31:57;;;;;;;2.80;0.30;;;;;;;;;;5456742;26;20013;-69
2024/04/09 09:34:42;;;;;;;1.30;0.17;;;12.50;96.20;;;;;;5483652;26;20002;-69
2024/04/09 09:37:10;;;;;;;2.78;0.30;;;12.30;96.60;;;;;;5483683;26;20012;-69
2024/04/09 09:39:40;;;;;;;1.02;0.40;;;12.20;96.20;;;;;;5503882;26;20009;-69
2024/04/09 09:42:10;;;;;;;2.80;0.22;;;12.10;96.40;;;;;;5493744;26;20009;-69
2024/04/09 09:44:37;;;;;;;;;;;11.90;96.60;;;;;;5463879;26;20455;-69
2024/04/09 09:47:05;;;;;;;3.38;0.40;;;11.90;96.50;;;;;;5474944;26;19931;-69
2024/04/09 09:49:31;;;;;;;3.78;0.22;;;11.80;96.80;;;;;;5505810;26;20013;-68
2024/04/09 09:51:57;;;;;;;1.45;0.30;;;11.80;97.00;;;;;;5495991;26;19990;-69
2024/04/09 09:54:24;;;;;;;1.98;0.32;;;11.90;96.50;;;;;;5495877;26;20370;-69
2024/04/09 09:56:53;;;;;;;5.30;0.28;;;11.80;96.70;;;;;;5486703;26;20002;-69
2024/04/09 09:59:21;;;;;;;3.88;0.32;;;11.80;96.80;;;;;;5504966;26;20005;-69
2024/04/09 10:01:49;;;;;;;1.20;0.30;;;11.80;96.90;;;;;;5488936;26;20026;-69
2024/04/09 10:04:18;;;;;;;0.55;0.20;;;11.80;97.00;;;;;;5505534;26;20001;-69
2024/04/09 10:06:56;;;;;;;1.95;0.30;;;11.80;96.70;;;;;;5510418;26;20002;-68
2024/04/09 10:09:46;;;;;;;2.88;0.30;;;11.80;97.00;;;;;;5493710;26;19998;-69
2024/04/09 10:12:32;;;;;;;0.98;0.30;;;11.80;97.00;;;;;;5462320;26;19995;-69
2024/04/09 10:15:02;;;;;;;1.67;0.32;;;11.80;96.90;;;;;;5496036;26;20009;-69
2024/04/09 10:17:45;;;;;;;0.95;0.30;;;11.90;96.80;;;;;;5502388;26;20459;-69
2024/04/09 10:20:18;;;;;;;0.43;0.28;;;12.00;97.10;;;;;;5480599;26;20017;-69
2024/04/09 10:22:44;;;;;;;2.25;0.20;;;12.00;96.30;;;;;;5477919;26;20012;-69
2024/04/09 10:25:41;;;;;;;2.08;0.20;;;12.00;96.20;;;;;;5477777;26;20005;-69
2024/04/09 10:28:10;;;;;;;0.65;0.10;;;12.00;96.60;;;;;;5479832;26;20413;-70
2024/04/09 10:30:39;;;;;;;0.28;0.17;;;12.00;96.50;;;;;;5498729;26;20006;-69
2024/04/09 10:33:06;;;;;;;0.45;0.15;;;12.10;96.30;;;;;;5477270;26;19998;-69
2024/04/09 10:35:33;;;;;;;2.08;0.28;;;12.20;96.20;;;;;;5496078;26;20017;-69
2024/04/09 10:38:05;;;;;;;0.28;0.20;;;12.30;96.00;;;;;;5510668;26;20008;-69
2024/04/09 10:40:33;;;;;;;0.10;0.10;;;12.40;95.60;;;;;;5503919;26;20455;-69
2024/04/09 10:43:02;;;;;;;2.05;0.30;;;12.50;95.40;;;;;;5491190;26;20346;-69
2024/04/09 10:45:29;;;;;;;0.20;0.10;;;12.60;95.00;;;;;;5481012;26;19997;-69
2024/04/09 10:47:55;;;;;;;0.28;0.28;;;12.50;94.60;;;;;;5516150;26;20343;-68
2024/04/09 10:50:22;;;;;;;0.47;0.15;;;12.40;94.50;;;;;;5484516;26;20041;-69
2024/04/09 10:52:47;;;;;;;0.70;0.30;;;12.20;95.10;;;;;;5482428;26;19998;-69
2024/04/09 10:55:14;;;;;;;0.50;0.20;;;12.10;95.30;;;;;;5501810;26;20327;-69
2024/04/09 10:57:41;;;;;;;0.47;0.20;;;12.10;95.50;;;;;;5498665;26;20002;-68
2024/04/09 11:00:11;;;;;;;1.48;0.47;;;12.10;95.80;;;;;;5499256;26;20020;-69
2024/04/09 11:02:41;;;;;;;0.75;0.20;;;12.10;95.80;;;;;;5482719;26;20461;-69
2024/04/09 11:05:11;;;;;;;2.70;0.20;;;11.90;96.10;;;;;;5514127;26;20073;-69
2024/04/09 11:07:44;;;;;;;1.65;0.57;;;11.80;96.40;;;;;;5468103;26;19998;-69
2024/04/09 11:10:12;;;;;;;0.50;0.10;;;11.80;96.80;;;;;;5502560;26;20017;-69
2024/04/09 11:12:44;;;;;;;0.90;0.30;;;11.80;96.70;;;;;;5486176;26;20002;-69
2024/04/09 11:15:10;;;;;;;0.40;0.20;;;11.80;95.90;;;;;;5485266;26;20476;-69
2024/04/09 11:17:37;;;;;;;1.92;0.30;;;11.80;95.60;;;;;;5493291;26;19997;-69
2024/04/09 11:20:10;;;;;;;1.00;0.30;;;11.70;95.80;;;;;;5487263;26;20075;-69
2024/04/09 11:22:43;;;;;;;0.38;0.30;;;11.70;95.50;;;;;;5458429;26;20377;-69
2024/04/09 11:25:12;;;;;;;1.58;0.30;;;11.60;95.60;;;;;;5484405;26;20012;-69
2024/04/09 11:27:41;;;;;;;0.93;0.30;;;11.50;96.10;;;;;;5487068;26;20017;-69
2024/04/09 11:30:08;;;;;;;1.23;0.47;;;11.50;95.70;;;;;;5502582;26;20077;-69
2024/04/09 11:32:38;;;;;;;2.05;0.30;;;11.50;95.90;;;;;;5492348;26;19999;-68
2024/04/09 11:35:25;;;;;;;;;;;11.50;95.60;;;;;;5500574;26;20495;-69
2024/04/09 11:37:55;;;;;;;2.08;0.43;;;11.40;95.90;;;;;;5482572;26;19934;-69
2024/04/09 11:40:26;;;;;;;0.70;0.47;;;11.30;96.10;;;;;;5505119;26;20002;-69
2024/04/09 11:42:56;;;;;;;3.33;0.40;;;11.30;97.80;;;;;;5495972;26;19998;-69
2024/04/09 11:45:22;;;;;;;1.23;0.35;;;;;;;;;;5507502;26;20005;-69
2024/04/09 11:47:48;;;;;;;1.75;0.40;;;;;;;;;;5506896;26;20338;-69
2024/04/09 11:50:15;;;;;;;1.05;0.35;;;;;;;;;;5481390;26;20015;-69
2024/04/09 11:52:41;;;;;;;2.22;0.22;;;;;;;;;;5459659;26;20013;-68
2024/04/09 11:55:08;;;;;;;1.50;0.30;;;;;;;;;;5463392;26;19997;-69
2024/04/09 11:57:34;;;;;;;1.42;0.40;;;;;;;;;;5493477;26;19995;-69
2024/04/09 12:00:00;;;;;;;0.35;0.30;;;;;;;;;;5476314;26;19994;-69
2024/04/09 12:02:26;;;;;;;3.53;0.63;;;;;;;;;;5502084;26;20009;-69
2024/04/09 12:04:52;;;;;;;1.30;0.13;;;;;;;;;;5518975;26;20066;-69
2024/04/09 12:07:19;;;;;;;0.73;0.47;;;;;;;;;;5503690;26;20026;-69
2024/04/09 12:09:45;;;;;;;2.50;0.45;;;;;;;;;;5499181;26;19998;-69
2024/04/09 12:12:11;;;;;;;1.33;0.55;;;;;;;;;;5488142;26;20012;-70
2024/04/09 12:14:37;;;;;;;0.98;0.17;;;;;;;;;;5498314;26;20468;-69
2024/04/09 12:17:04;;;;;;;0.93;0.40;;;;;;;;;;5495044;26;20443;-69
2024/04/09 12:19:30;;;;;;;1.10;0.20;;;;;;;;;;5509574;26;20315;-69
2024/04/09 12:21:56;;;;;;;2.97;0.30;;;;;;;;;;5470148;26;19994;-69
2024/04/09 12:24:23;;;;;;;9.68;0.40;;;;;;;;;;5481770;26;20001;-69
2024/04/09 12:26:49;;;;;;;1.10;0.30;;;;;;;;;;5478679;26;20009;-69
2024/04/09 12:29:15;;;;;;;0.65;0.20;;;;;;;;;;5497577;26;20045;-69
2024/04/09 12:31:43;;;;;;;4.32;0.30;;;;;;;;;;5524651;26;20439;-69
2024/04/09 12:34:09;;;;;;;3.40;0.30;;;;;;;;;;5504828;26;20307;-69
2024/04/09 12:36:35;;;;;;;0.40;0.10;;;;;;;;;;5504494;26;20002;-69
2024/04/09 12:39:03;;;;;;;2.63;0.15;;;;;;;;;;5522548;26;20457;-69
2024/04/09 12:41:29;;;;;;;4.13;0.30;;;;;;;;;;5491633;26;20413;-69
2024/04/09 12:43:55;;;;;;;0.90;0.40;;;;;;;;;;5508517;26;19994;-69
2024/04/09 12:46:22;;;;;;;0.85;0.38;;;;;;;;;;5510475;26;20016;-70
2024/04/09 12:48:48;;;;;;;7.15;0.30;;;;;;;;;;5507665;26;20399;-70
2024/04/09 12:51:14;;;;;;;2.88;0.25;;;;;;;;;;5491693;26;19994;-69
2024/04/09 12:53:40;;;;;;;4.50;0.50;;;;;;;;;;5514075;26;20423;-70
2024/04/09 12:56:07;;;;;;;1.95;0.47;;;;;;;;;;5519061;26;20012;-70